Time;durP1;ratioP1;P1;durP2;ratioP2;P2;SDS_P1;SDS_P2;PMS_P1;PMS_P2;Temp;Humidity;BMP_temperature;BMP_pressure;BME280_temperature;BME280_humidity;BME280_pressure;Samples;Min_cycle;Max_cycle;Signal;HPM_P1;HPM_P2
2022/09/23 00:00:57;;;;;;;4.67;4.27;;;;;;;;;;5114840;27;20689;-64
2022/09/23 00:03:27;;;;;;;4.20;3.83;;;;;;;;;;5114261;27;20586;-64
2022/09/23 00:06:02;;;;;;;4.83;4.30;;;;;;;;;;5115678;27;20238;-64
2022/09/23 00:08:29;;;;;;;4.50;4.10;;;;;;;;;;5114632;28;20290;-64
2022/09/23 00:10:57;;;;;;;4.63;4.23;;;;;;;;;;5109841;27;20294;-65
2022/09/23 00:13:25;;;;;;;4.50;4.10;;;;;;;;;;5116532;27;20291;-65
2022/09/23 00:15:52;;;;;;;4.73;4.33;;;;;;;;;;5116361;27;20322;-65
2022/09/23 00:18:19;;;;;;;4.57;4.17;;;;;;;;;;5115329;27;20673;-64
2022/09/23 00:20:47;;;;;;;4.80;4.27;;;;;;;;;;5116113;27;20290;-65
2022/09/23 00:23:15;;;;;;;4.40;3.97;;;;;;;;;;5116521;27;20208;-65
2022/09/23 00:25:42;;;;;;;4.20;3.90;;;;;;;;;;5115938;27;20666;-65
2022/09/23 00:28:10;;;;;;;4.40;3.93;;;;;;;;;;5118560;27;20196;-65
2022/09/23 00:30:40;;;;;;;4.53;4.13;;;;;;;;;;5115926;27;20242;-65
2022/09/23 00:33:07;;;;;;;6.37;4.47;;;;;;;;;;5115678;27;20203;-65
2022/09/23 00:35:34;;;;;;;4.77;4.37;;;;;;;;;;5116171;27;20234;-65
2022/09/23 00:38:02;;;;;;;5.10;4.23;;;;;;;;;;5112448;28;20577;-65
2022/09/23 00:40:29;;;;;;;5.13;4.73;;;;;;;;;;5114730;27;20210;-64
2022/09/23 00:42:56;;;;;;;5.03;4.63;;;;;;;;;;5116002;27;20260;-64
2022/09/23 00:45:24;;;;;;;4.90;4.50;;;;;;;;;;5126481;27;20330;-65
2022/09/23 00:48:01;;;;;;;4.63;4.23;;;;;;;;;;5115234;27;20302;-66
2022/09/23 00:50:37;;;;;;;4.93;4.53;;;;;;;;;;5115941;27;20227;-65
2022/09/23 00:53:10;;;;;;;5.50;5.00;;;;;;;;;;5134070;27;20709;-63
2022/09/23 00:55:47;;;;;;;5.43;4.93;;;;;;;;;;5124132;27;20326;-63
2022/09/23 00:58:16;;;;;;;5.20;4.70;;;;;;;;;;5114547;27;20587;-65
2022/09/23 01:00:45;;;;;;;5.20;4.70;;;;;;;;;;5115309;27;20211;-65
2022/09/23 01:03:14;;;;;;;4.97;4.57;;;;;;;;;;5136215;27;20303;-63
2022/09/23 01:05:42;;;;;;;4.77;4.37;;;;;;;;;;5126281;27;20227;-65
2022/09/23 01:08:10;;;;;;;5.07;4.57;;;;;;;;;;5114981;27;20294;-65
2022/09/23 01:10:41;;;;;;;6.47;4.93;;;;;;;;;;5115608;27;20192;-65
2022/09/23 01:13:08;;;;;;;4.87;4.47;;;;;;;;;;5114456;27;20209;-65
2022/09/23 01:15:39;;;;;;;5.53;5.03;;;;;;;;;;5114606;27;20306;-65
2022/09/23 01:18:10;;;;;;;5.40;4.90;;;;;;;;;;5115847;27;20302;-65
2022/09/23 01:21:06;;;;;;;5.43;4.93;;;;;;;;;;5115555;27;20294;-65
2022/09/23 01:23:52;;;;;;;6.20;5.03;;;;;;;;;;5026884;27;20246;-65
2022/09/23 01:26:38;;;;;;;5.70;4.57;;;;;;;;;;5115051;27;20247;-65
2022/09/23 01:29:24;;;;;;;5.83;5.27;;;;;;;;;;5115215;27;20290;-65
2022/09/23 01:31:51;;;;;;;5.03;4.63;;;;;;;;;;5114967;27;20211;-64
2022/09/23 01:34:19;;;;;;;4.90;4.50;;;;;;;;;;5114843;27;20308;-65
2022/09/23 01:36:49;;;;;;;6.33;4.83;;;;;;;;;;5132976;27;20293;-66
2022/09/23 01:39:37;;;;;;;5.33;4.83;;;;;;;;;;5135859;27;20286;-64
2022/09/23 01:42:08;;;;;;;5.00;4.50;;;;;;;;;;5136055;27;20278;-65
2022/09/23 01:44:37;;;;;;;4.70;4.30;;;;;;;;;;5135835;27;20326;-64
2022/09/23 01:47:11;;;;;;;4.57;4.17;;;;;;;;;;5136033;27;20253;-64
2022/09/23 01:49:43;;;;;;;4.80;4.40;;;;;;;;;;5136162;27;20210;-65
2022/09/23 01:52:18;;;;;;;5.17;4.67;;;;;;;;;;5132166;27;20226;-65
2022/09/23 01:54:52;;;;;;;5.07;4.63;;;;;;;;;;5115219;27;20333;-65
2022/09/23 01:57:30;;;;;;;5.50;5.00;;;;;;;;;;5116942;27;20668;-65
2022/09/23 02:00:05;;;;;;;6.40;5.43;;;;;;;;;;5123041;27;20199;-64
2022/09/23 02:02:35;;;;;;;7.17;6.37;;;;;;;;;;5115464;27;20253;-65
2022/09/23 02:05:10;;;;;;;6.67;6.07;;;;;;;;;;5114209;27;20247;-64
2022/09/23 02:07:39;;;;;;;6.10;5.50;;;;;;;;;;5114884;27;20634;-64
2022/09/23 02:10:12;;;;;;;5.97;5.37;;;;;;;;;;5126559;27;20338;-65
2022/09/23 02:12:44;;;;;;;5.90;5.40;;;;;;;;;;5153558;27;20270;-65
2022/09/23 02:15:14;;;;;;;8.23;5.73;;;;;;;;;;5134928;27;20331;-64
2022/09/23 02:17:42;;;;;;;6.17;5.57;;;;;;;;;;5134447;27;20294;-64
2022/09/23 02:20:13;;;;;;;5.70;5.10;;;;;;;;;;5134919;27;20238;-64
2022/09/23 02:22:45;;;;;;;5.50;5.00;;;;;;;;;;5134469;27;20301;-63
2022/09/23 02:25:15;;;;;;;5.63;5.13;;;;;;;;;;5134566;27;20230;-64
2022/09/23 02:27:47;;;;;;;5.37;4.90;;;;;;;;;;5134960;27;20653;-64
2022/09/23 02:30:16;;;;;;;5.23;4.80;;;;;;;;;;5113651;27;20711;-64
2022/09/23 02:32:49;;;;;;;7.10;5.83;;;;;;;;;;5131676;27;20214;-65
2022/09/23 02:35:21;;;;;;;6.83;5.30;;;;;;;;;;5132007;27;20223;-65
2022/09/23 02:38:00;;;;;;;5.27;4.77;;;;;;;;;;5138857;27;20634;-65
2022/09/23 02:40:46;;;;;;;5.10;4.60;;;;;;;;;;5114208;27;20669;-65
2022/09/23 02:43:20;;;;;;;5.97;5.20;;;;;;;;;;5136897;27;20202;-63
2022/09/23 02:45:47;;;;;;;5.20;4.70;;;;;;;;;;5133900;27;20708;-65
2022/09/23 02:48:27;;;;;;;6.00;5.40;;;;;;;;;;5134252;27;20195;-65
2022/09/23 02:50:55;;;;;;;5.60;5.10;;;;;;;;;;5134239;27;20206;-65
2022/09/23 02:53:22;;;;;;;5.77;5.23;;;;;;;;;;5134521;27;20281;-64
2022/09/23 02:55:50;;;;;;;4.87;4.47;;;;;;;;;;5133522;27;20245;-64
2022/09/23 02:58:17;;;;;;;5.47;4.97;;;;;;;;;;5123255;27;20204;-65
2022/09/23 03:01:04;;;;;;;5.70;5.13;;;;;;;;;;5112985;27;20286;-64
2022/09/23 03:03:38;;;;;;;5.20;4.70;;;;;;;;;;5113555;28;20296;-64
2022/09/23 03:06:28;;;;;;;5.97;4.60;;;;;;;;;;5112267;27;20223;-64
2022/09/23 03:08:58;;;;;;;4.73;4.33;;;;;;;;;;5113095;27;20214;-64
2022/09/23 03:11:26;;;;;;;5.53;4.80;;;;;;;;;;5113469;27;20203;-65
2022/09/23 03:14:16;;;;;;;6.83;4.97;;;;;;;;;;5113532;28;20282;-65
2022/09/23 03:17:00;;;;;;;5.30;4.80;;;;;;;;;;5113734;27;20215;-65
2022/09/23 03:19:34;;;;;;;5.07;4.60;;;;;;;;;;5113272;27;20631;-65
2022/09/23 03:22:05;;;;;;;5.00;4.60;;;;;;;;;;5113145;28;20239;-65
2022/09/23 03:24:33;;;;;;;4.90;4.50;;;;;;;;;;5112919;28;20219;-65
2022/09/23 03:27:03;;;;;;;5.40;4.90;;;;;;;;;;5131096;28;20652;-65
2022/09/23 03:29:36;;;;;;;5.47;4.97;;;;;;;;;;5112684;28;20648;-65
2022/09/23 03:32:07;;;;;;;5.40;4.67;;;;;;;;;;5129530;28;20207;-64
2022/09/23 03:34:36;;;;;;;5.20;4.70;;;;;;;;;;5109308;27;20288;-65
2022/09/23 03:37:17;;;;;;;6.23;4.90;;;;;;;;;;5116867;27;20195;-65
2022/09/23 03:39:51;;;;;;;5.67;5.17;;;;;;;;;;5135650;27;20737;-65
2022/09/23 03:42:22;;;;;;;6.20;5.60;;;;;;;;;;5117170;27;20199;-65
2022/09/23 03:44:55;;;;;;;6.80;5.57;;;;;;;;;;5117334;27;20211;-65
2022/09/23 03:47:24;;;;;;;6.73;6.13;;;;;;;;;;5116555;27;20207;-65
2022/09/23 03:49:52;;;;;;;6.33;5.73;;;;;;;;;;5114871;27;20607;-63
2022/09/23 03:52:21;;;;;;;5.83;5.13;;;;;;;;;;5119037;27;20331;-63
2022/09/23 03:54:49;;;;;;;5.80;5.30;;;;;;;;;;5116594;27;20251;-64
2022/09/23 03:57:17;;;;;;;6.57;5.97;;;;;;;;;;5116394;27;20287;-65
2022/09/23 03:59:44;;;;;;;5.97;5.37;;;;;;;;;;5116789;27;20294;-65
2022/09/23 04:02:12;;;;;;;8.00;6.20;;;;;;;;;;5116884;27;20287;-64
2022/09/23 04:04:40;;;;;;;6.07;5.57;;;;;;;;;;5116115;27;20219;-65
2022/09/23 04:07:07;;;;;;;6.13;5.07;;;;;;;;;;5116918;27;20282;-65
2022/09/23 04:09:35;;;;;;;6.73;5.20;;;;;;;;;;5132540;27;20285;-65
2022/09/23 04:12:03;;;;;;;5.77;4.70;;;;;;;;;;5137173;27;20684;-65
2022/09/23 04:14:30;;;;;;;5.50;5.00;;;;;;;;;;5136949;27;20310;-63
2022/09/23 04:16:57;;;;;;;6.77;6.17;;;;;;;;;;5136861;27;20236;-65
2022/09/23 04:19:25;;;;;;;12.87;9.73;;;;;;;;;;5156058;27;20273;-66
2022/09/23 04:21:52;;;;;;;11.63;9.57;;;;;;;;;;5154194;27;20249;-65
2022/09/23 04:24:20;;;;;;;9.37;8.37;;;;;;;;;;5155595;27;20227;-65
2022/09/23 04:26:50;;;;;;;9.57;8.57;;;;;;;;;;5136049;27;20218;-65
2022/09/23 04:29:17;;;;;;;9.73;6.80;;;;;;;;;;5117625;27;20246;-65
2022/09/23 04:31:45;;;;;;;8.93;4.60;;;;;;;;;;5114636;27;20207;-65
2022/09/23 04:34:14;;;;;;;8.57;5.60;;;;;;;;;;5116402;27;20309;-65
2022/09/23 04:36:42;;;;;;;10.37;5.53;;;;;;;;;;5116062;27;20199;-65
2022/09/23 04:39:09;;;;;;;9.80;4.57;;;;;;;;;;5116093;27;20195;-64
2022/09/23 04:41:36;;;;;;;9.50;5.20;;;;;;;;;;5116240;27;20302;-66
2022/09/23 04:44:04;;;;;;;11.83;5.13;;;;;;;;;;5135307;27;20234;-64
2022/09/23 04:46:32;;;;;;;5.27;4.17;;;;;;;;;;5136028;27;20233;-64
2022/09/23 04:48:59;;;;;;;8.33;5.10;;;;;;;;;;5136597;27;20198;-65
2022/09/23 04:51:27;;;;;;;9.07;6.00;;;;;;;;;;5136405;27;20565;-65
2022/09/23 04:53:55;;;;;;;12.50;8.07;;;;;;;;;;5154547;27;20234;-64
2022/09/23 04:56:23;;;;;;;13.17;8.20;;;;;;;;;;5136025;27;20206;-64
2022/09/23 04:58:51;;;;;;;13.70;9.30;;;;;;;;;;5120873;27;20231;-64
2022/09/23 05:01:25;;;;;;;12.27;9.40;;;;;;;;;;5115660;27;20199;-65
2022/09/23 05:03:55;;;;;;;16.20;11.50;;;;;;;;;;5133843;27;20216;-65
2022/09/23 05:06:22;;;;;;;16.60;11.40;;;;;;;;;;5115005;27;20785;-64
2022/09/23 05:08:53;;;;;;;20.20;13.70;;;;;;;;;;5115483;27;20286;-64
2022/09/23 05:11:21;;;;;;;17.63;12.40;;;;;;;;;;5115019;27;20692;-64
2022/09/23 05:13:49;;;;;;;7.80;5.47;;;;;;;;;;5115340;27;20243;-64
2022/09/23 05:16:17;;;;;;;9.63;6.50;;;;;;;;;;5138694;27;20294;-64
2022/09/23 05:18:44;;;;;;;11.77;7.90;;;;;;;;;;5136227;27;20214;-65
2022/09/23 05:21:13;;;;;;;9.20;6.87;;;;;;;;;;5135773;27;20242;-64
2022/09/23 05:23:41;;;;;;;8.23;6.60;;;;;;;;;;5136091;27;20203;-65
2022/09/23 05:26:09;;;;;;;9.97;5.60;;;;;;;;;;5135397;27;20227;-65
2022/09/23 05:28:38;;;;;;;7.73;5.70;;;;;;;;;;5122040;27;20217;-65
2022/09/23 05:31:15;;;;;;;5.90;5.13;;;;;;;;;;5114940;27;20199;-65
2022/09/23 05:33:50;;;;;;;9.40;4.93;;;;;;;;;;5112567;27;20204;-65
2022/09/23 05:36:19;;;;;;;5.20;4.57;;;;;;;;;;5114653;27;20657;-64
2022/09/23 05:38:48;;;;;;;9.53;6.27;;;;;;;;;;5114788;27;20204;-65
2022/09/23 05:41:15;;;;;;;30.97;16.93;;;;;;;;;;5114873;27;20207;-65
2022/09/23 05:43:43;;;;;;;23.97;14.97;;;;;;;;;;5114994;27;20310;-64
2022/09/23 05:46:11;;;;;;;25.50;16.50;;;;;;;;;;5114325;27;20274;-64
2022/09/23 05:48:39;;;;;;;24.67;17.27;;;;;;;;;;5114590;27;20552;-65
2022/09/23 05:51:10;;;;;;;16.07;11.70;;;;;;;;;;5114100;27;20271;-65
2022/09/23 05:53:37;;;;;;;15.57;12.43;;;;;;;;;;5130627;27;20268;-64
2022/09/23 05:56:05;;;;;;;23.27;12.73;;;;;;;;;;5122002;27;20311;-63
2022/09/23 05:58:32;;;;;;;27.30;14.40;;;;;;;;;;5114133;27;20258;-65
2022/09/23 06:01:00;;;;;;;25.03;13.70;;;;;;;;;;5114519;27;20207;-65
2022/09/23 06:03:27;;;;;;;23.00;13.27;;;;;;;;;;5113365;27;20208;-65
2022/09/23 06:05:55;;;;;;;17.53;11.27;;;;;;;;;;5113301;27;20234;-65
2022/09/23 06:08:23;;;;;;;14.10;9.30;;;;;;;;;;5117773;27;20259;-65
2022/09/23 06:10:50;;;;;;;15.17;8.50;;;;;;;;;;5113978;27;20287;-65
2022/09/23 06:13:20;;;;;;;9.93;7.63;;;;;;;;;;5132354;27;20199;-64
2022/09/23 06:15:48;;;;;;;8.67;7.30;;;;;;;;;;5132036;27;20306;-64
2022/09/23 06:18:16;;;;;;;9.33;7.70;;;;;;;;;;5113533;27;20200;-65
2022/09/23 06:20:43;;;;;;;6.87;6.27;;;;;;;;;;5113884;27;20213;-64
2022/09/23 06:23:11;;;;;;;7.73;6.53;;;;;;;;;;5114280;27;20215;-65
2022/09/23 06:25:38;;;;;;;9.27;6.13;;;;;;;;;;5114075;27;20262;-65
2022/09/23 06:28:11;;;;;;;7.30;6.20;;;;;;;;;;5113715;27;20231;-63
2022/09/23 06:30:38;;;;;;;7.27;6.43;;;;;;;;;;5114292;27;20695;-65
2022/09/23 06:33:06;;;;;;;7.60;6.30;;;;;;;;;;5113441;27;20622;-65
2022/09/23 06:35:33;;;;;;;8.20;6.53;;;;;;;;;;5114172;27;20223;-65
2022/09/23 06:38:04;;;;;;;7.73;7.03;;;;;;;;;;5113678;27;20754;-65
2022/09/23 06:40:32;;;;;;;8.03;7.23;;;;;;;;;;5113756;27;20290;-65
2022/09/23 06:43:00;;;;;;;8.03;7.33;;;;;;;;;;5113861;27;20253;-65
2022/09/23 06:45:27;;;;;;;10.10;8.07;;;;;;;;;;5113327;27;20221;-65
2022/09/23 06:47:55;;;;;;;9.10;8.10;;;;;;;;;;5113759;27;20211;-64
2022/09/23 06:50:26;;;;;;;9.30;8.37;;;;;;;;;;5114247;27;20278;-65
2022/09/23 06:52:54;;;;;;;9.40;8.50;;;;;;;;;;5113602;27;20275;-65
2022/09/23 06:55:26;;;;;;;10.27;9.17;;;;;;;;;;5113037;27;20644;-65
2022/09/23 06:57:55;;;;;;;10.20;9.13;;;;;;;;;;5115031;27;20207;-64
2022/09/23 07:00:23;;;;;;;10.47;9.37;;;;;;;;;;5115282;27;20458;-65
2022/09/23 07:02:50;;;;;;;9.67;8.77;;;;;;;;;;5113781;27;20203;-64
2022/09/23 07:05:18;;;;;;;9.77;8.80;;;;;;;;;;5113027;27;20223;-65
2022/09/23 07:07:45;;;;;;;9.73;8.53;;;;;;;;;;5113308;27;20306;-64
2022/09/23 07:10:13;;;;;;;9.63;8.67;;;;;;;;;;5112603;28;20279;-64
2022/09/23 07:12:40;;;;;;;8.70;7.80;;;;;;;;;;5113070;27;20290;-66
2022/09/23 07:15:08;;;;;;;9.07;8.27;;;;;;;;;;5116810;27;20251;-65
2022/09/23 07:17:36;;;;;;;8.93;8.00;;;;;;;;;;5133656;27;20202;-64
2022/09/23 07:20:03;;;;;;;9.03;7.53;;;;;;;;;;5133602;27;20293;-64
2022/09/23 07:22:30;;;;;;;9.87;8.67;;;;;;;;;;5133336;27;20215;-65
2022/09/23 07:24:58;;;;;;;9.40;8.33;;;;;;;;;;5133203;27;20589;-65
2022/09/23 07:27:28;;;;;;;9.33;7.90;;;;;;;;;;5130108;27;20259;-64
2022/09/23 07:29:56;;;;;;;8.57;7.77;;;;;;;;;;5113005;28;20278;-65
2022/09/23 07:32:24;;;;;;;9.83;7.80;;;;;;;;;;5114320;27;20206;-64
2022/09/23 07:34:52;;;;;;;8.93;8.03;;;;;;;;;;5112062;28;20235;-65
2022/09/23 07:37:20;;;;;;;9.87;7.83;;;;;;;;;;5132295;28;20238;-65
2022/09/23 07:39:47;;;;;;;8.17;7.37;;;;;;;;;;5112432;28;20665;-64
2022/09/23 07:42:14;;;;;;;9.27;7.57;;;;;;;;;;5112373;28;20569;-65
2022/09/23 07:44:44;;;;;;;7.60;6.97;;;;;;;;;;5112883;28;20322;-65
2022/09/23 07:47:11;;;;;;;8.23;6.77;;;;;;;;;;5109457;28;20226;-64
2022/09/23 07:49:38;;;;;;;10.67;6.67;;;;;;;;;;5134046;27;20215;-65
2022/09/23 07:52:05;;;;;;;7.73;6.63;;;;;;;;;;5112937;28;20276;-65
2022/09/23 07:54:33;;;;;;;7.70;6.80;;;;;;;;;;5130422;28;20298;-65
2022/09/23 07:57:01;;;;;;;7.47;6.50;;;;;;;;;;5112342;28;20290;-65
2022/09/23 07:59:28;;;;;;;8.17;6.43;;;;;;;;;;5111292;28;20705;-65
2022/09/23 08:01:56;;;;;;;11.27;6.60;;;;;;;;;;5112313;28;20215;-65
2022/09/23 08:04:26;;;;;;;8.63;6.50;;;;;;;;;;5112022;28;20250;-64
2022/09/23 08:06:54;;;;;;;8.23;7.37;;;;;;;;;;5122712;27;20318;-65
2022/09/23 08:09:23;;;;;;;7.57;6.30;;;;;;;;;;5131125;27;20545;-64
2022/09/23 08:11:51;;;;;;;9.37;6.50;;;;;;;;;;5112255;28;20202;-65
2022/09/23 08:14:21;;;;;;;9.23;6.27;;;;;;;;;;5112532;28;20772;-65
2022/09/23 08:16:48;;;;;;;7.00;5.77;;;;;;;;;;5111875;28;20310;-65
2022/09/23 08:19:16;;;;;;;6.27;5.67;;;;;;;;;;5112300;28;20294;-65
2022/09/23 08:21:45;;;;;;;9.23;6.33;;;;;;;;;;5115019;27;20246;-65
2022/09/23 08:24:14;;;;;;;8.80;6.43;;;;;;;;;;5129375;27;20723;-65
2022/09/23 08:26:42;;;;;;;10.27;6.20;;;;;;;;;;5137186;27;20314;-64
2022/09/23 08:29:12;;;;;;;6.50;5.90;;;;;;;;;;5118709;27;20208;-65
2022/09/23 08:31:39;;;;;;;9.27;6.80;;;;;;;;;;5119145;27;20294;-64
2022/09/23 08:34:07;;;;;;;7.17;6.47;;;;;;;;;;5115610;27;20314;-65
2022/09/23 08:36:34;;;;;;;7.83;6.53;;;;;;;;;;5116253;27;20211;-65
2022/09/23 08:39:02;;;;;;;7.90;6.13;;;;;;;;;;5116299;27;20234;-65
2022/09/23 08:41:29;;;;;;;7.70;6.87;;;;;;;;;;5131329;27;20728;-65
2022/09/23 08:43:58;;;;;;;7.80;5.90;;;;;;;;;;5136518;27;20202;-65
2022/09/23 08:46:29;;;;;;;9.20;5.77;;;;;;;;;;5136657;27;20229;-65
2022/09/23 08:48:58;;;;;;;9.73;6.73;;;;;;;;;;5133735;27;20199;-65
2022/09/23 08:51:34;;;;;;;7.83;7.07;;;;;;;;;;5114766;27;20282;-65
2022/09/23 08:54:01;;;;;;;8.07;6.90;;;;;;;;;;5116904;27;20242;-65
2022/09/23 08:56:29;;;;;;;9.47;6.97;;;;;;;;;;5105926;27;20577;-64
2022/09/23 08:59:00;;;;;;;9.20;6.93;;;;;;;;;;5117667;27;20294;-65
2022/09/23 09:01:36;;;;;;;7.33;6.67;;;;;;;;;;5118208;27;20688;-65
2022/09/23 09:04:13;;;;;;;7.43;6.13;;;;;;;;;;5118538;27;20211;-64
2022/09/23 09:06:41;;;;;;;9.40;7.40;;;;;;;;;;5125370;27;20306;-65
2022/09/23 09:09:38;;;;;;;8.47;7.07;;;;;;;;;;5117743;27;20188;-65
2022/09/23 09:12:15;;;;;;;7.90;7.10;;;;;;;;;;5111629;27;20231;-65
2022/09/23 09:14:45;;;;;;;8.80;6.93;;;;;;;;;;5116112;27;20259;-65
2022/09/23 09:17:23;;;;;;;8.03;7.10;;;;;;;;;;5113088;27;20298;-65
2022/09/23 09:20:04;;;;;;;7.33;6.63;;;;;;;;;;5115431;27;20244;-65
2022/09/23 09:22:38;;;;;;;6.60;5.90;;;;;;;;;;5114529;27;20294;-65
2022/09/23 09:25:15;;;;;;;8.17;6.27;;;;;;;;;;5114511;27;20762;-65
2022/09/23 09:27:42;;;;;;;7.07;6.37;;;;;;;;;;5114686;27;20286;-65
2022/09/23 09:30:16;;;;;;;7.17;6.30;;;;;;;;;;5114564;27;20298;-65
2022/09/23 09:32:45;;;;;;;6.50;5.90;;;;;;;;;;5125944;27;20206;-65
2022/09/23 09:35:21;;;;;;;6.90;5.83;;;;;;;;;;5114979;27;20648;-64
2022/09/23 09:37:48;;;;;;;8.43;6.00;;;;;;;;;;5115216;27;20231;-65
2022/09/23 09:40:16;;;;;;;6.03;5.53;;;;;;;;;;5115027;27;20203;-64
2022/09/23 09:42:46;;;;;;;7.53;5.53;;;;;;;;;;5115558;27;20211;-66
2022/09/23 09:45:22;;;;;;;6.45;5.82;;;;;;;;;;5112323;27;20322;-64
2022/09/23 09:48:04;;;;;;;7.10;5.73;;;;;;;;;;5114673;27;20275;-66
2022/09/23 09:50:43;;;;;;;6.23;5.40;;;;;;;;;;5114423;27;20239;-67
2022/09/23 09:53:16;;;;;;;6.50;5.15;;;;;;;;;;5112659;27;20198;-65
2022/09/23 09:55:44;;;;;;;7.93;5.60;;;;;;;;;;5130011;27;20221;-65
2022/09/23 09:58:15;;;;;;;8.33;5.33;;;;;;;;;;5114750;27;20286;-66
2022/09/23 10:00:44;;;;;;;6.77;5.30;;;;;;;;;;5113980;27;20657;-66
2022/09/23 10:03:14;;;;;;;5.87;5.23;;;;;;;;;;5114484;27;20235;-64
2022/09/23 10:05:45;;;;;;;5.93;5.33;;;;;;;;;;5119099;27;20233;-64
2022/09/23 10:08:33;;;;;;;5.90;5.28;;;;;;;;;;5111543;27;20227;-66
2022/09/23 10:11:01;;;;;;;5.87;5.33;;;;;;;;;;5114585;27;20606;-66
2022/09/23 10:13:29;;;;;;;4.88;4.47;;;;;;;;;;5113853;27;20294;-65
2022/09/23 10:15:58;;;;;;;4.82;4.20;;;;;;;;;;5114169;27;20318;-66
2022/09/23 10:18:44;;;;;;;7.18;4.60;;;;;;;;;;5132813;27;20483;-66
2022/09/23 10:21:13;;;;;;;4.88;4.38;;;;;;;;;;5108617;27;20278;-64
2022/09/23 10:23:43;;;;;;;4.30;3.90;;;;;;;;;;5114634;27;20211;-64
2022/09/23 10:26:12;;;;;;;4.65;4.25;;;;;;;;;;5113607;27;20318;-65
2022/09/23 10:28:40;;;;;;;4.13;3.72;;;;;;;;;;5113250;27;20298;-66
2022/09/23 10:31:09;;;;;;;4.85;3.70;;;;;;;;;;5113335;27;20270;-66
2022/09/23 10:33:47;;;;;;;4.65;4.15;;;;;;;;;;5122789;27;20207;-65
2022/09/23 10:36:18;;;;;;;4.30;3.90;;;;;;;;;;5113313;27;20246;-66
2022/09/23 10:38:47;;;;;;;4.78;3.88;;;;;;;;;;5114594;27;20706;-65
2022/09/23 10:47:17;;;;;;;4.20;3.80;;;;;;;;;;5131667;27;20269;-65
2022/09/23 10:49:51;;;;;;;4.75;3.72;;;;;;;;;;5108254;27;20703;-66
2022/09/23 10:52:31;;;;;;;12.52;5.07;;;;;;;;;;5113640;27;20283;-66
2022/09/23 10:55:08;;;;;;;5.95;4.80;;;;;;;;;;5113052;27;20241;-65
2022/09/23 10:57:44;;;;;;;4.35;3.50;;;;;;;;;;5109549;27;20672;-65
2022/09/23 11:00:27;;;;;;;5.25;4.72;;;;;;;;;;5113519;27;20278;-65
2022/09/23 11:02:57;;;;;;;6.60;3.42;;;;;;;;;;5113685;27;20211;-65
2022/09/23 11:05:28;;;;;;;3.30;3.00;;;;;;;;;;5112924;27;20307;-66
2022/09/23 11:08:17;;;;;;;4.63;3.63;;;;;;;;;;5113995;27;20228;-65
2022/09/23 11:10:48;;;;;;;5.13;3.70;;;;;;;;;;5113203;27;20661;-65
2022/09/23 11:13:41;;;;;;;7.18;3.58;;;;;;;;;;5113733;27;20207;-66
2022/09/23 11:16:23;;;;;;;4.18;3.25;;;;;;;;;;5113389;28;20307;-63
2022/09/23 11:19:09;;;;;;;3.28;2.97;;;;;;;;;;5113483;27;20621;-66
2022/09/23 11:21:36;;;;;;;3.50;2.92;;;;;;;;;;5113190;28;20687;-65
2022/09/23 11:24:07;;;;;;;3.60;3.30;;;;;;;;;;5113067;28;20755;-66
2022/09/23 11:26:35;;;;;;;3.88;3.20;;;;;;;;;;5112567;28;20207;-66
2022/09/23 11:29:02;;;;;;;3.70;3.33;;;;;;;;;;5113045;28;20207;-65
2022/09/23 11:31:48;;;;;;;3.92;3.42;;;;;;;;;;5112727;28;20200;-65
2022/09/23 11:34:18;;;;;;;4.50;3.22;;;;;;;;;;5112340;28;20368;-65
2022/09/23 11:36:48;;;;;;;3.67;3.38;;;;;;;;;;5130747;28;20256;-65
2022/09/23 11:39:25;;;;;;;4.53;2.90;;;;;;;;;;5112892;27;20209;-63
2022/09/23 11:41:54;;;;;;;5.18;2.83;;;;;;;;;;5106979;28;20286;-65
2022/09/23 11:44:28;;;;;;;5.13;3.53;;;;;;;;;;5113245;28;20215;-66
2022/09/23 11:47:05;;;;;;;3.97;2.75;;;;;;;;;;5113162;27;20760;-65
2022/09/23 11:49:34;;;;;;;3.03;2.83;;;;;;;;;;5109200;28;20293;-66
2022/09/23 11:52:08;;;;;;;5.13;4.47;;;;;;;;;;5112698;28;20615;-66
2022/09/23 11:54:40;;;;;;;4.82;3.05;;;;;;;;;;5113045;28;20266;-65
2022/09/23 11:57:11;;;;;;;3.42;3.17;;;;;;;;;;5115458;27;20281;-66
2022/09/23 11:59:46;;;;;;;6.70;3.17;;;;;;;;;;5108635;27;20203;-65
2022/09/23 12:02:16;;;;;;;5.82;3.35;;;;;;;;;;5116384;27;20731;-65
2022/09/23 12:04:51;;;;;;;3.33;3.00;;;;;;;;;;5119115;27;20602;-66
2022/09/23 12:07:28;;;;;;;13.43;8.57;;;;;;;;;;5117040;27;20207;-64
2022/09/23 12:10:05;;;;;;;6.78;3.90;;;;;;;;;;5111484;27;20286;-64
2022/09/23 12:12:47;;;;;;;3.75;3.17;;;;;;;;;;5135484;27;20282;-64
2022/09/23 12:15:18;;;;;;;3.88;3.40;;;;;;;;;;5117755;27;20255;-66
2022/09/23 12:17:48;;;;;;;3.83;2.47;;;;;;;;;;5137724;27;20425;-65
2022/09/23 12:20:18;;;;;;;4.93;2.83;;;;;;;;;;5116103;27;20207;-66
2022/09/23 12:22:46;;;;;;;3.95;2.72;;;;;;;;;;5116911;27;20297;-65
2022/09/23 12:25:19;;;;;;;3.08;2.78;;;;;;;;;;5116137;27;20713;-64
2022/09/23 12:27:54;;;;;;;2.80;2.42;;;;;;;;;;5116281;27;20302;-66
2022/09/23 12:30:26;;;;;;;3.35;2.55;;;;;;;;;;5118044;27;20199;-66
2022/09/23 12:33:06;;;;;;;2.72;2.40;;;;;;;;;;5118666;27;20203;-65
2022/09/23 12:35:37;;;;;;;4.22;2.60;;;;;;;;;;5116429;27;20219;-64
2022/09/23 12:38:12;;;;;;;6.32;2.50;;;;;;;;;;5119217;27;20293;-65
2022/09/23 12:40:43;;;;;;;3.90;2.35;;;;;;;;;;5134456;27;20199;-65
2022/09/23 12:43:31;;;;;;;2.70;2.20;;;;;;;;;;5115745;27;20204;-66
2022/09/23 12:46:24;;;;;;;2.55;2.35;;;;;;;;;;5114760;27;20227;-66
2022/09/23 12:48:52;;;;;;;3.17;2.22;;;;;;;;;;5109764;27;20733;-65
2022/09/23 12:51:20;;;;;;;2.42;1.90;;;;;;;;;;5116347;27;20299;-66
2022/09/23 12:53:51;;;;;;;4.03;2.00;;;;;;;;;;5115340;27;20269;-65
2022/09/23 12:56:20;;;;;;;2.60;2.40;;;;;;;;;;5116516;27;20238;-64
2022/09/23 12:58:47;;;;;;;3.45;2.50;;;;;;;;;;5115476;27;20302;-65
2022/09/23 13:01:14;;;;;;;3.30;2.95;;;;;;;;;;5115077;27;20295;-64
2022/09/23 13:06:55;;;;;;;2.78;2.58;;;;;;;;;;5132710;27;20302;-65
2022/09/23 13:09:25;;;;;;;2.75;2.55;;;;;;;;;;5113981;27;20750;-65
2022/09/23 13:11:56;;;;;;;2.80;2.60;;;;;;;;;;5117937;27;20299;-64
2022/09/23 13:14:24;;;;;;;4.45;2.72;;;;;;;;;;5135835;27;20731;-65
2022/09/23 13:16:55;;;;;;;2.78;2.45;;;;;;;;;;5135720;27;20251;-65
2022/09/23 13:19:26;;;;;;;3.20;2.60;;;;;;;;;;5135918;27;20203;-65
2022/09/23 13:21:53;;;;;;;2.83;2.58;;;;;;;;;;5135970;27;20271;-65
2022/09/23 13:24:27;;;;;;;3.80;2.58;;;;;;;;;;5135821;27;20237;-64
2022/09/23 13:27:15;;;;;;;5.00;3.40;;;;;;;;;;5135735;27;20668;-64
2022/09/23 13:30:01;;;;;;;3.72;2.40;;;;;;;;;;5119386;27;20195;-65
2022/09/23 13:32:30;;;;;;;13.38;6.70;;;;;;;;;;5115100;27;20230;-64
2022/09/23 13:35:06;;;;;;;3.47;2.50;;;;;;;;;;5115196;27;20254;-64
2022/09/23 13:37:45;;;;;;;9.00;6.45;;;;;;;;;;5114603;27;20245;-64
2022/09/23 13:40:18;;;;;;;15.63;9.43;;;;;;;;;;5115475;27;20238;-65
2022/09/23 13:43:06;;;;;;;3.90;3.38;;;;;;;;;;5114851;27;20327;-65
2022/09/23 13:45:37;;;;;;;9.75;6.38;;;;;;;;;;5114507;27;20525;-65
2022/09/23 13:48:10;;;;;;;3.38;2.60;;;;;;;;;;5102803;27;20254;-65
2022/09/23 13:50:40;;;;;;;8.20;3.13;;;;;;;;;;5115035;27;20578;-65
2022/09/23 13:53:09;;;;;;;4.40;3.97;;;;;;;;;;5114359;27;20616;-66
2022/09/23 13:55:38;;;;;;;4.07;3.15;;;;;;;;;;5114302;27;20321;-64
2022/09/23 13:58:16;;;;;;;6.60;4.50;;;;;;;;;;5115349;27;20238;-65
2022/09/23 14:00:44;;;;;;;3.35;3.05;;;;;;;;;;5114463;27;20222;-65
2022/09/23 14:03:17;;;;;;;11.65;7.85;;;;;;;;;;5118541;27;20207;-66
2022/09/23 14:05:45;;;;;;;4.20;3.10;;;;;;;;;;5132821;27;20595;-65
2022/09/23 14:08:12;;;;;;;3.47;2.60;;;;;;;;;;5111214;27;20226;-65
2022/09/23 14:10:43;;;;;;;3.88;2.67;;;;;;;;;;5132969;27;20200;-65
2022/09/23 14:13:40;;;;;;;3.08;2.70;;;;;;;;;;5114445;27;20306;-65
2022/09/23 14:16:09;;;;;;;3.13;2.83;;;;;;;;;;5115106;27;20229;-66
2022/09/23 14:18:42;;;;;;;2.47;2.28;;;;;;;;;;5113919;27;20627;-66
2022/09/23 14:21:26;;;;;;;3.58;2.42;;;;;;;;;;5126419;27;20311;-66
2022/09/23 14:23:53;;;;;;;4.75;3.40;;;;;;;;;;5134240;27;20202;-65
2022/09/23 14:26:21;;;;;;;2.50;2.30;;;;;;;;;;5134480;27;20270;-66
2022/09/23 14:28:49;;;;;;;2.95;2.17;;;;;;;;;;5119156;27;20223;-65
2022/09/23 14:31:16;;;;;;;2.47;2.28;;;;;;;;;;5111254;27;20235;-64
2022/09/23 14:33:43;;;;;;;2.85;2.30;;;;;;;;;;5113555;27;20205;-64
2022/09/23 14:39:01;;;;;;;2.50;2.30;;;;;;;;;;5135765;27;20732;-64
2022/09/23 14:41:33;;;;;;;4.32;2.30;;;;;;;;;;5113876;27;20294;-64
2022/09/23 14:44:01;;;;;;;4.05;2.15;;;;;;;;;;5113444;27;20270;-65
2022/09/23 14:46:31;;;;;;;2.60;2.40;;;;;;;;;;5113363;27;20294;-65
2022/09/23 14:48:59;;;;;;;4.43;1.92;;;;;;;;;;5113611;27;20310;-65
2022/09/23 14:51:47;;;;;;;3.30;2.13;;;;;;;;;;5113780;27;20735;-65
2022/09/23 14:54:23;;;;;;;2.22;2.03;;;;;;;;;;5118788;27;20265;-65
2022/09/23 14:56:50;;;;;;;2.78;2.20;;;;;;;;;;5134072;27;20862;-65
2022/09/23 14:59:26;;;;;;;7.78;4.95;;;;;;;;;;5133102;27;20218;-65
2022/09/23 15:01:53;;;;;;;2.60;2.40;;;;;;;;;;5129176;27;20214;-64
2022/09/23 15:04:23;;;;;;;5.57;2.40;;;;;;;;;;5113253;27;20266;-65
2022/09/23 15:06:56;;;;;;;3.63;2.08;;;;;;;;;;5113288;27;20642;-65
2022/09/23 15:09:25;;;;;;;2.55;2.35;;;;;;;;;;5113282;27;20310;-66
2022/09/23 15:11:56;;;;;;;3.85;3.45;;;;;;;;;;5113905;27;20234;-65
2022/09/23 15:14:26;;;;;;;2.75;2.20;;;;;;;;;;5113287;27;20306;-65
2022/09/23 15:17:06;;;;;;;3.67;2.17;;;;;;;;;;5115007;28;20575;-64